Hovedside
METAR-TAF:

METAR-TAF

Lufthavner :

N'djili lufthavn

Kinshasa, Kongo

breddegrad: 04-23S, lengdegrad: 015-26E, høyde over havet: 309 m

Gjeldene værobservasjon

Denne rapporten ble laget for 1 time og 12 minutter siden, klokken 21:00 UTC
Vind 4 kt fra Vest
Temperatur 26°C
Luftfuktighet 79%
Trykk 1012 hPa
Sikt: 4000 m
dis,

METAR: FZAA 252100Z 27004KT 4000 BR NSC 26/22 Q1012 NOSIG

Tid: 23:12 (22:12 UTC)

Varsel

Denne rapporten ble laget for 5 timer og 12 minutter siden, klokken 17:00 UTC
Varsel gyldig fra 25. klokken 18 UTC til 26. klokken 24 UTC
Vind 6 kt fra Vest
Sikt: 5000 m
dis
Blir
fra 25. klokken 19 UTC til 25. klokken 21 UTC
Sikt: 6000 m
Midlertidig
fra 26. klokken 02 UTC til 26. klokken 05 UTC
Sikt: 3000 m
Brutte skyer i en høyde av 1200 ft
dis
Blir
fra 26. klokken 10 UTC til 26. klokken 12 UTC
Få skyer i en høyde av 2000 ft

TAF: FZAA 251700Z 2518/2624 26006KT 5000 HZ NSC BECMG 2519/2521 6000 NSW TEMPO 2602/2605 3000 BR BKN012 BECMG 2610/2612 FEW020

Værobservasjoner og værvarsel for over 4000 flyplasser (METAR- og TAF-rapporter).

Tilgjengelige stasjoner er representert av de røde og gule prikkene på kartet.

Hold musepekeren over prikken for å se navnet på stasjonen.

Klikk så for å se værobservasjoner og -varsler.

For å forandre kartet kan du klikke på den grønne knappen med svart kryss for å zoome inn, på den grønne knappen med strek for å zoome ut, eller på de grønne pilene for å se tilstøtende kart.


METAR-TAF: